createdAt,value
2023-10-31T00:02:30.047Z,12.60
2023-10-31T00:05:37.601Z,12.40
2023-10-31T00:08:46.409Z,12.70
2023-10-31T00:11:53.431Z,13.20
2023-10-31T00:15:00.230Z,13.70
2023-10-31T00:18:09.312Z,14.20
2023-10-31T00:21:18.608Z,15.70
2023-10-31T00:24:17.212Z,15.70
2023-10-31T00:27:25.528Z,16.60
2023-10-31T00:30:32.478Z,17.50
2023-10-31T00:33:39.799Z,17.40
2023-10-31T00:36:47.575Z,18.50
2023-10-31T00:39:55.875Z,18.00
2023-10-31T00:43:03.552Z,21.40
2023-10-31T00:46:11.328Z,21.80
2023-10-31T00:49:20.712Z,23.60
2023-10-31T00:52:28.062Z,23.70
2023-10-31T00:55:35.545Z,22.20
2023-10-31T00:58:47.077Z,26.00
2023-10-31T01:01:53.810Z,23.60
2023-10-31T01:05:02.014Z,25.00
2023-10-31T01:08:08.760Z,24.10
2023-10-31T01:11:16.357Z,26.10
2023-10-31T01:14:24.784Z,26.80
2023-10-31T01:17:32.126Z,25.80
2023-10-31T01:20:39.195Z,26.30
2023-10-31T01:23:48.757Z,27.40
2023-10-31T01:26:55.511Z,27.40
2023-10-31T01:30:02.703Z,27.00
2023-10-31T01:33:08.586Z,27.00
2023-10-31T01:36:13.467Z,29.20
2023-10-31T01:39:20.516Z,28.00
2023-10-31T01:42:28.150Z,27.40
2023-10-31T01:45:38.270Z,28.90
2023-10-31T01:48:45.567Z,28.20
2023-10-31T01:51:53.019Z,25.40
2023-10-31T01:55:00.500Z,25.70
2023-10-31T01:58:08.078Z,26.20
2023-10-31T02:01:15.403Z,22.80
2023-10-31T02:04:22.363Z,23.80
2023-10-31T02:07:29.007Z,26.50
2023-10-31T02:10:36.761Z,28.30
2023-10-31T02:13:43.340Z,28.60
2023-10-31T02:16:50.799Z,23.70
2023-10-31T02:19:58.181Z,24.50
2023-10-31T02:23:05.508Z,20.70
2023-10-31T02:26:12.444Z,26.30
2023-10-31T02:29:19.252Z,23.60
2023-10-31T02:32:26.691Z,23.30
2023-10-31T02:35:33.798Z,24.70
2023-10-31T02:38:41.339Z,22.90
2023-10-31T02:41:48.429Z,24.30
2023-10-31T02:44:56.542Z,22.00
2023-10-31T02:48:03.183Z,24.60
2023-10-31T02:51:11.831Z,25.70
2023-10-31T02:54:19.313Z,24.80
2023-10-31T02:57:26.511Z,23.40
2023-10-31T03:00:33.663Z,23.00
2023-10-31T03:03:40.780Z,18.30
2023-10-31T03:06:48.708Z,20.80
2023-10-31T03:09:56.588Z,18.50
2023-10-31T03:13:04.651Z,18.90
2023-10-31T03:16:11.282Z,15.90
2023-10-31T03:19:18.955Z,16.40
2023-10-31T03:22:26.081Z,18.80
2023-10-31T03:25:33.091Z,16.00
2023-10-31T03:28:41.347Z,17.50
2023-10-31T03:31:48.918Z,16.40
2023-10-31T03:34:56.364Z,18.90
2023-10-31T03:38:04.089Z,19.60
2023-10-31T03:41:11.664Z,17.40
2023-10-31T03:44:19.833Z,16.60
2023-10-31T03:47:27.474Z,16.60
2023-10-31T03:50:34.805Z,16.10
2023-10-31T03:53:42.139Z,16.70
2023-10-31T03:56:50.123Z,16.90
2023-10-31T03:59:57.389Z,16.80
2023-10-31T04:03:05.094Z,15.40
2023-10-31T04:06:12.837Z,12.40
2023-10-31T04:09:19.971Z,11.70
2023-10-31T04:12:27.985Z,12.00
2023-10-31T04:15:36.048Z,11.00
2023-10-31T04:18:44.331Z,10.20
2023-10-31T04:21:51.278Z,8.80
2023-10-31T04:24:59.054Z,9.60
2023-10-31T04:28:06.341Z,8.80
2023-10-31T04:31:14.212Z,7.90
2023-10-31T04:34:21.370Z,5.80
2023-10-31T04:37:29.382Z,4.60
2023-10-31T04:40:37.682Z,4.30
2023-10-31T04:43:45.194Z,2.70
2023-10-31T04:46:52.914Z,2.60
2023-10-31T04:50:00.093Z,2.30
2023-10-31T04:53:07.711Z,2.60
2023-10-31T04:56:15.656Z,2.50
2023-10-31T04:59:22.785Z,2.60
2023-10-31T05:02:30.450Z,2.80
2023-10-31T05:05:38.223Z,2.10
2023-10-31T05:08:45.490Z,2.50
2023-10-31T05:11:53.831Z,1.80
2023-10-31T05:15:01.114Z,1.90
2023-10-31T05:18:08.497Z,1.30
2023-10-31T05:21:16.092Z,1.40
2023-10-31T05:24:23.283Z,1.40
2023-10-31T05:27:34.115Z,1.10
2023-10-31T05:30:32.238Z,1.40
2023-10-31T05:33:39.599Z,0.90
2023-10-31T05:36:47.243Z,0.60
2023-10-31T05:39:54.922Z,0.70
2023-10-31T05:43:02.764Z,0.70
2023-10-31T05:46:09.900Z,0.90
2023-10-31T05:49:17.621Z,0.70
2023-10-31T05:52:25.073Z,0.70
2023-10-31T05:55:32.324Z,0.50
2023-10-31T05:58:39.908Z,0.40
2023-10-31T06:01:48.088Z,0.50
2023-10-31T06:04:55.520Z,0.50
2023-10-31T06:08:05.095Z,0.50
2023-10-31T06:11:12.626Z,0.70
2023-10-31T06:14:20.855Z,0.50
2023-10-31T06:17:28.446Z,0.40
2023-10-31T06:20:35.671Z,0.50
2023-10-31T06:23:42.988Z,0.30
2023-10-31T06:26:51.360Z,0.30
2023-10-31T06:30:11.479Z,0.40
2023-10-31T06:33:03.283Z,0.50
2023-10-31T06:36:11.101Z,0.30
2023-10-31T06:39:18.380Z,0.50
2023-10-31T06:42:25.448Z,0.40
2023-10-31T06:45:34.007Z,0.30
2023-10-31T06:48:41.181Z,0.50
2023-10-31T06:51:48.522Z,0.50
2023-10-31T06:54:56.321Z,0.70
2023-10-31T06:58:04.268Z,0.70
2023-10-31T07:01:11.636Z,0.60
2023-10-31T07:04:18.767Z,0.50
2023-10-31T07:07:25.772Z,0.70
2023-10-31T07:10:33.643Z,0.80
2023-10-31T07:13:41.866Z,0.80
2023-10-31T07:16:48.483Z,0.90
2023-10-31T07:19:57.009Z,1.00
2023-10-31T07:22:56.863Z,1.20
2023-10-31T07:26:04.714Z,1.30
2023-10-31T07:29:12.224Z,1.00
2023-10-31T07:32:19.521Z,1.10
2023-10-31T07:35:26.478Z,1.10
2023-10-31T07:38:33.417Z,1.40
2023-10-31T07:41:41.112Z,1.40
2023-10-31T07:44:47.694Z,1.20
2023-10-31T07:47:54.588Z,1.20
2023-10-31T07:51:01.609Z,1.20
2023-10-31T07:54:09.291Z,1.40
2023-10-31T07:57:16.694Z,1.50
2023-10-31T08:00:23.764Z,1.60
2023-10-31T08:03:31.175Z,1.60
2023-10-31T08:06:38.341Z,1.50
2023-10-31T08:09:45.862Z,1.70
2023-10-31T08:12:52.906Z,1.60
2023-10-31T08:15:59.972Z,1.70
2023-10-31T08:19:07.226Z,2.30
2023-10-31T08:22:14.444Z,2.20
2023-10-31T08:25:22.412Z,2.40
2023-10-31T08:28:29.880Z,2.30
2023-10-31T08:31:36.785Z,2.40
2023-10-31T08:34:44.995Z,2.40
2023-10-31T08:37:51.621Z,2.70
2023-10-31T08:40:59.924Z,2.70
2023-10-31T08:44:06.636Z,2.70
2023-10-31T08:47:14.616Z,2.80
2023-10-31T08:50:21.418Z,2.50
2023-10-31T08:53:29.064Z,2.80
2023-10-31T08:56:36.707Z,2.50
2023-10-31T08:59:44.067Z,2.30
2023-10-31T09:02:51.758Z,2.60
2023-10-31T09:05:59.237Z,2.70
2023-10-31T09:09:06.864Z,2.90
2023-10-31T09:12:14.621Z,3.30
2023-10-31T09:15:22.224Z,4.70
2023-10-31T09:18:28.984Z,4.20
2023-10-31T09:21:36.800Z,3.90
2023-10-31T09:24:46.685Z,3.10
2023-10-31T09:27:54.119Z,2.90
2023-10-31T09:31:01.713Z,1.80
2023-10-31T09:34:09.267Z,1.50
2023-10-31T09:37:16.342Z,1.40
2023-10-31T09:40:23.016Z,1.10
2023-10-31T09:43:31.615Z,0.80
2023-10-31T09:46:39.024Z,0.90
2023-10-31T09:49:46.723Z,1.00
2023-10-31T09:52:53.791Z,0.90
2023-10-31T09:56:00.715Z,1.10
2023-10-31T09:59:08.310Z,0.80
2023-10-31T10:02:15.546Z,0.90
2023-10-31T10:05:22.956Z,0.40
2023-10-31T10:08:30.398Z,0.30
2023-10-31T10:11:38.152Z,0.20
2023-10-31T10:14:44.990Z,0.40
2023-10-31T10:17:52.541Z,0.30
2023-10-31T10:20:59.483Z,0.20
2023-10-31T10:24:06.640Z,0.20
2023-10-31T10:27:13.763Z,0.10
2023-10-31T10:30:21.232Z,0.20
2023-10-31T10:33:28.095Z,0.20
2023-10-31T10:36:35.924Z,0.20
2023-10-31T10:39:43.101Z,0.20
2023-10-31T10:42:50.688Z,0.10
2023-10-31T10:45:57.752Z,0.20
2023-10-31T10:49:04.847Z,0.20
2023-10-31T10:52:12.200Z,0.70
2023-10-31T10:55:19.341Z,0.20
2023-10-31T10:58:26.891Z,0.10
2023-10-31T11:01:34.136Z,0.00
2023-10-31T11:04:41.317Z,0.00
2023-10-31T11:07:48.652Z,0.10
2023-10-31T11:10:56.296Z,0.10
2023-10-31T11:14:04.102Z,0.20
2023-10-31T11:17:10.603Z,0.10
2023-10-31T11:20:18.122Z,0.10
2023-10-31T11:23:25.646Z,0.20
2023-10-31T11:26:32.270Z,0.10
2023-10-31T11:29:39.680Z,0.30
2023-10-31T11:32:46.725Z,0.30
2023-10-31T11:35:54.059Z,0.50
2023-10-31T11:39:01.096Z,0.20
2023-10-31T11:42:08.565Z,0.30
2023-10-31T11:45:15.249Z,1.10
2023-10-31T11:48:22.831Z,0.40
2023-10-31T11:51:29.514Z,0.20
2023-10-31T11:54:37.570Z,0.40
2023-10-31T11:57:44.664Z,0.20
2023-10-31T12:00:52.293Z,0.30
2023-10-31T12:03:59.572Z,0.60
2023-10-31T12:07:07.003Z,0.30
2023-10-31T12:10:14.133Z,0.40
2023-10-31T12:13:21.779Z,0.40
2023-10-31T12:16:28.720Z,0.50
2023-10-31T12:19:37.066Z,0.40
2023-10-31T12:22:43.819Z,0.70
2023-10-31T12:25:51.262Z,0.80
2023-10-31T12:28:58.854Z,0.50
2023-10-31T12:32:06.365Z,0.50
2023-10-31T12:35:13.838Z,1.00
2023-10-31T12:38:21.918Z,0.90
2023-10-31T12:41:28.840Z,0.90
2023-10-31T12:44:36.403Z,1.00
2023-10-31T12:47:43.610Z,1.40
2023-10-31T12:50:51.321Z,1.50
2023-10-31T12:53:58.595Z,1.10
2023-10-31T12:57:06.078Z,1.00
2023-10-31T13:00:13.702Z,1.60
2023-10-31T13:03:22.801Z,1.20
2023-10-31T13:06:30.570Z,1.40
2023-10-31T13:09:38.157Z,1.60
2023-10-31T13:12:45.721Z,1.60
2023-10-31T13:15:52.992Z,1.50
2023-10-31T13:19:00.551Z,1.90
2023-10-31T13:22:07.682Z,8.20
2023-10-31T13:25:15.353Z,1.70
2023-10-31T13:28:22.655Z,2.00
2023-10-31T13:32:08.266Z,2.00
2023-10-31T13:35:15.768Z,1.90
2023-10-31T13:38:22.680Z,2.10
2023-10-31T13:41:29.953Z,2.30
2023-10-31T13:44:37.508Z,1.90
2023-10-31T13:47:44.992Z,2.00
2023-10-31T13:50:52.830Z,1.60
2023-10-31T13:53:59.557Z,1.50
2023-10-31T13:57:06.096Z,1.30
2023-10-31T14:00:13.855Z,1.60
2023-10-31T14:03:20.877Z,1.30
2023-10-31T14:06:28.154Z,1.40
2023-10-31T14:09:36.040Z,1.80
2023-10-31T14:12:44.616Z,1.40
2023-10-31T14:15:51.410Z,1.50
2023-10-31T14:18:59.212Z,1.50
2023-10-31T14:22:06.746Z,1.50
2023-10-31T14:25:13.997Z,1.50
2023-10-31T14:28:21.635Z,1.40
2023-10-31T14:31:28.878Z,1.50
2023-10-31T14:34:36.002Z,2.00
2023-10-31T14:37:43.273Z,1.50
2023-10-31T14:40:50.454Z,1.50
2023-10-31T14:43:57.367Z,1.50
2023-10-31T14:47:04.716Z,1.50
2023-10-31T14:50:11.641Z,1.40
2023-10-31T14:53:19.186Z,1.90
2023-10-31T14:56:27.060Z,1.60
2023-10-31T14:59:34.150Z,1.70
2023-10-31T15:02:41.466Z,1.50
2023-10-31T15:05:48.952Z,1.40
2023-10-31T15:08:56.563Z,1.90
2023-10-31T15:12:03.883Z,1.40
2023-10-31T15:15:11.124Z,1.50
2023-10-31T15:18:19.982Z,1.80
2023-10-31T15:21:27.301Z,1.80
2023-10-31T15:24:35.413Z,1.70
2023-10-31T15:27:42.583Z,2.40
2023-10-31T15:30:49.992Z,2.30
2023-10-31T15:33:57.656Z,2.20
2023-10-31T15:37:05.080Z,1.90
2023-10-31T15:40:11.797Z,2.10
2023-10-31T15:43:19.473Z,2.60
2023-10-31T15:46:28.421Z,2.40
2023-10-31T15:49:35.623Z,3.10
2023-10-31T15:52:43.158Z,3.10
2023-10-31T15:55:50.542Z,2.90
2023-10-31T15:58:57.741Z,2.80
2023-10-31T16:02:05.822Z,2.50
2023-10-31T16:05:14.236Z,3.30
2023-10-31T16:08:21.629Z,3.20
2023-10-31T16:11:29.368Z,3.20
2023-10-31T16:14:36.692Z,3.10
2023-10-31T16:17:43.582Z,4.20
2023-10-31T16:20:50.894Z,4.60
2023-10-31T16:23:59.332Z,3.50
2023-10-31T16:27:07.148Z,4.30
2023-10-31T16:30:14.276Z,4.10
2023-10-31T16:33:21.605Z,4.10
2023-10-31T16:36:28.314Z,4.00
2023-10-31T16:39:36.140Z,3.80
2023-10-31T16:42:44.274Z,4.00
2023-10-31T16:45:51.465Z,4.20
2023-10-31T16:48:59.193Z,3.90
2023-10-31T16:52:05.885Z,3.80
2023-10-31T16:55:13.376Z,3.30
2023-10-31T16:58:21.086Z,2.90
2023-10-31T17:01:28.295Z,3.60
2023-10-31T17:04:35.883Z,3.70
2023-10-31T17:07:43.877Z,8.10
2023-10-31T17:10:51.271Z,3.30
2023-10-31T17:13:58.844Z,3.40
2023-10-31T17:17:06.841Z,3.20
2023-10-31T17:20:13.662Z,3.00
2023-10-31T17:23:21.040Z,3.10
2023-10-31T17:26:28.640Z,2.90
2023-10-31T17:29:35.558Z,2.60
2023-10-31T17:32:43.060Z,2.30
2023-10-31T17:35:50.482Z,2.40
2023-10-31T17:38:57.827Z,2.80
2023-10-31T17:42:04.766Z,3.10
2023-10-31T17:45:12.044Z,2.10
2023-10-31T17:48:20.010Z,1.60
2023-10-31T17:51:27.169Z,1.20
2023-10-31T17:54:34.159Z,1.30
2023-10-31T17:57:41.712Z,0.80
2023-10-31T18:00:49.024Z,0.90
2023-10-31T18:03:56.178Z,0.60
2023-10-31T18:07:03.455Z,0.90
2023-10-31T18:10:10.670Z,0.90
2023-10-31T18:13:17.522Z,0.80
2023-10-31T18:16:25.073Z,1.40
2023-10-31T18:19:31.869Z,1.40
2023-10-31T18:22:38.960Z,1.80
2023-10-31T18:25:46.502Z,2.60
2023-10-31T18:28:53.294Z,8.10
2023-10-31T18:32:00.829Z,2.50
2023-10-31T18:35:08.171Z,2.00
2023-10-31T18:38:15.303Z,2.10
2023-10-31T18:41:24.040Z,3.60
2023-10-31T18:44:39.839Z,4.90
2023-10-31T18:47:35.627Z,3.50
2023-10-31T18:50:43.110Z,3.00
2023-10-31T18:53:50.297Z,2.80
2023-10-31T18:56:57.445Z,4.00
2023-10-31T19:00:04.462Z,3.50
2023-10-31T19:03:11.726Z,3.90
2023-10-31T19:06:18.512Z,2.90
2023-10-31T19:09:25.786Z,2.20
2023-10-31T19:12:33.300Z,3.40
2023-10-31T19:15:40.339Z,2.90
2023-10-31T19:18:47.072Z,3.30
2023-10-31T19:21:54.444Z,3.30
2023-10-31T19:25:01.463Z,4.00
2023-10-31T19:28:08.544Z,3.40
2023-10-31T19:31:16.041Z,4.80
2023-10-31T19:34:23.328Z,4.80
2023-10-31T19:37:30.365Z,5.50
2023-10-31T19:40:37.394Z,6.50
2023-10-31T19:43:44.497Z,7.10
2023-10-31T19:46:51.478Z,8.10
2023-10-31T19:49:58.625Z,8.10
2023-10-31T19:53:05.986Z,7.20
2023-10-31T19:56:12.643Z,7.20
2023-10-31T19:59:20.086Z,6.40
2023-10-31T20:02:26.977Z,11.50
2023-10-31T20:05:33.683Z,5.80
2023-10-31T20:08:41.087Z,6.40
2023-10-31T20:11:48.177Z,6.50
2023-10-31T20:15:00.425Z,6.40
2023-10-31T20:17:57.666Z,5.80
2023-10-31T20:21:04.688Z,7.40
2023-10-31T20:24:11.656Z,7.50
2023-10-31T20:27:19.004Z,7.40
2023-10-31T20:30:26.040Z,8.00
2023-10-31T20:33:32.692Z,7.60
2023-10-31T20:36:39.288Z,6.20
2023-10-31T20:39:46.398Z,8.30
2023-10-31T20:42:53.349Z,7.10
2023-10-31T20:46:00.252Z,7.40
2023-10-31T20:49:09.237Z,8.00
2023-10-31T20:52:16.513Z,7.80
2023-10-31T20:55:23.499Z,10.80
2023-10-31T20:58:30.824Z,9.20
2023-10-31T21:01:37.461Z,8.30
2023-10-31T21:04:44.372Z,8.10
2023-10-31T21:07:52.122Z,8.40
2023-10-31T21:10:59.203Z,9.20
2023-10-31T21:14:06.230Z,8.10
2023-10-31T21:17:13.063Z,6.20
2023-10-31T21:20:19.893Z,5.40
2023-10-31T21:23:27.713Z,6.80
2023-10-31T21:26:35.180Z,4.50
2023-10-31T21:29:42.639Z,4.90
2023-10-31T21:32:50.024Z,4.00
2023-10-31T21:35:57.380Z,4.50
2023-10-31T21:39:04.257Z,4.50
2023-10-31T21:42:11.120Z,4.70
2023-10-31T21:45:18.274Z,3.10
2023-10-31T21:48:25.660Z,3.30
2023-10-31T21:51:32.720Z,3.50
2023-10-31T21:54:40.585Z,3.40
2023-10-31T21:57:47.562Z,3.10
2023-10-31T22:00:55.189Z,2.80
2023-10-31T22:04:02.892Z,3.60
2023-10-31T22:07:09.961Z,2.30
2023-10-31T22:10:17.515Z,2.50
2023-10-31T22:13:24.518Z,3.70
2023-10-31T22:16:31.812Z,3.60
2023-10-31T22:19:39.192Z,3.50
2023-10-31T22:22:46.467Z,3.30
2023-10-31T22:25:54.082Z,4.30
2023-10-31T22:29:01.209Z,4.30
2023-10-31T22:32:08.566Z,4.10
2023-10-31T22:35:15.702Z,4.20
2023-10-31T22:38:22.551Z,3.80
2023-10-31T22:41:30.186Z,4.10
2023-10-31T22:44:37.651Z,3.30
2023-10-31T22:47:44.490Z,3.60
2023-10-31T22:50:51.962Z,2.90
2023-10-31T22:53:58.797Z,3.60
2023-10-31T22:57:06.402Z,3.10
2023-10-31T23:00:13.893Z,3.20
2023-10-31T23:03:20.667Z,3.10
2023-10-31T23:06:28.166Z,3.40
2023-10-31T23:09:35.893Z,3.50
2023-10-31T23:12:42.903Z,3.00
2023-10-31T23:15:49.975Z,3.90
2023-10-31T23:18:57.237Z,4.30
2023-10-31T23:22:04.333Z,4.00
2023-10-31T23:25:12.024Z,4.60
2023-10-31T23:28:19.383Z,4.00
2023-10-31T23:31:26.176Z,4.10
2023-10-31T23:34:33.495Z,4.60
2023-10-31T23:37:40.621Z,5.30
2023-10-31T23:40:47.983Z,5.70
2023-10-31T23:43:55.169Z,6.40
2023-10-31T23:47:02.622Z,5.60
2023-10-31T23:50:09.498Z,5.40
2023-10-31T23:53:16.483Z,5.70
2023-10-31T23:56:24.052Z,6.30
2023-10-31T23:59:31.016Z,6.80
